Skip Navigation Links Skip Navigation Links

Current Weather

Fukuoka, Japan

For information only: do not use for flight planning or navigation.
Latest weather
Observation time Saturday, January 22, 2022 4:30 AM JST
Local time Saturday, January 22, 2022 4:47 AM JST
Flight conditions Visual Meteorological Conditions
Winds
Wind speed calm
Visibility 6.2 mi.
Sky condition
Ceiling unlimited
Temperature 32°F
Dewpoint 27°F
Altimeter 30.33 in.Hg
Derived measurements
Relative humidity 80%
Wind chill 32°F
Density altitude -2185 ft.
Remarks
Fully automated report.
No significant changes expected in the next two hours.
METAR RJFF 211930Z AUTO 00000KT 9999 NSC 00/M03 Q1027 NOSIG RMK A3033

Settings

Location code

InnerDrive.Weather 4.0.6770.0 Release CLR 4.0.30319.42000
Copyright ©2018 Inner Drive Technology. All rights reserved. Portions Copyright ©1986-2018 David Braverman.

Find weather

Site navigation


Skip Navigation Links

Place info

Page info

PayPal - The safer, easier way to pay online!

Return home.

Copyright ©2022 Inner Drive Technology. Purveyors of fine, hand-crafted computer software. Page printed 2022-01-21T19:47:15 UTC.